CMA CGM Florida — 2AKU3 — position and weather

sailwx.info

Track history (hours):
 
Tides and Currents Weather Stations Pressure Air Temp Water Temp Dewpoint Dewpoint Depression Visibility Wind Speed Wind Dir Waves Ship Positions

CMA CGM Florida

Last reported at 2017-Dec-17 04:41 UTC. Time now 2017-Dec-17 19:44 UTC.
Position N 40°49' E 001°40'.

Length 294 m; draft 10.5 m.

Type: Ship (hazmat cat A). MMSI: 235060593.

Date/timePositionNaut miles runAvg speedWind from/ knotsBaromVisibWave heightAir tempDewpointWater temp
2017-Dec-17 04:41N 40°49' E 001°40'314.1
2017-Dec-17 04:30N 40°51' E 001°42'714.2
2017-Dec-17 04:00N 40°56' E 001°48'714.3
2017-Dec-17 03:30N 41°02' E 001°54'713.8
2017-Dec-17 03:00N 41°07' E 001°60'713.3
2017-Dec-17 02:30N 41°12' E 002°05'612.6
2017-Dec-17 02:00N 41°17' E 002°11'1 0.1
2017-Dec-16 14:17N 41°18' E 002°11'2 7.9
2017-Dec-16 14:00N 41°17' E 002°12'155 5.4
2017-Dec-15 09:24N 42°59' E 004°48'612.7
2017-Dec-15 08:57N 43°04' E 004°53'612.7
2017-Dec-15 08:30N 43°08' E 004°58'612.0
2017-Dec-15 08:00N 43°14' E 005°00'713.4
2017-Dec-15 07:30N 43°21' E 004°58'4 9.0
2017-Dec-15 07:00N 43°24' E 004°54'2 4.1
2017-Dec-15 06:30N 43°24' E 004°51'0 0.7
2017-Dec-15 05:57N 43°25' E 004°51'0 0.0
2017-Dec-15 05:27N 43°25' E 004°51'0 0.0
2017-Dec-15 05:00N 43°25' E 004°51'0 0.0
2017-Dec-15 04:30N 43°25' E 004°51'0 0.0
2017-Dec-15 04:00N 43°25' E 004°51'0 0.0
2017-Dec-15 02:30N 43°25' E 004°51'0 0.0
2017-Dec-15 01:00N 43°25' E 004°51'0 0.0
2017-Dec-15 00:27N 43°25' E 004°51'0 0.0
2017-Dec-14 18:29N 43°25' E 004°51'0 0.0
2017-Dec-14 18:00N 43°25' E 004°51'0 0.5
2017-Dec-14 17:30N 43°25' E 004°51'3 5.9
2017-Dec-14 17:00N 43°24' E 004°55'611.7
2017-Dec-14 16:30N 43°19' E 004°60'816.6
2017-Dec-14 16:00N 43°11' E 005°03'8518.3
2017-Dec-14 11:21N 43°04' E 006°60'719.8
2017-Dec-14 11:00N 43°07' E 007°08'1019.8
2017-Dec-14 10:30N 43°13' E 007°19'1019.8
2017-Dec-14 10:00N 43°19' E 007°30'1019.4
2017-Dec-14 09:30N 43°26' E 007°40'3820.0
2017-Dec-14 07:36N 43°50' E 008°19'221.0
2017-Dec-14 07:30N 43°52' E 008°21'1020.9
2017-Dec-14 07:00N 44°00' E 008°30'1020.7
2017-Dec-14 06:30N 44°09' E 008°38'1019.8
2017-Dec-14 06:00N 44°18' E 008°42'714.6
2017-Dec-14 05:30N 44°25' E 008°46'2 2.9
2017-Dec-14 04:59N 44°25' E 008°48'0 0.0
2017-Dec-14 04:29N 44°25' E 008°48'0 0.0
2017-Dec-14 03:59N 44°25' E 008°48'0 0.0
2017-Dec-14 03:29N 44°25' E 008°48'0 0.0
2017-Dec-14 02:59N 44°25' E 008°48'0 0.0
2017-Dec-14 02:29N 44°25' E 008°48'0 0.0
2017-Dec-14 01:59N 44°25' E 008°48'0 0.0
2017-Dec-14 01:29N 44°25' E 008°48'0 0.0
2017-Dec-14 00:59N 44°25' E 008°48'0 0.0
2017-Dec-14 00:29N 44°25' E 008°48'0 0.0
2017-Dec-13 23:59N 44°25' E 008°48'0 0.0
2017-Dec-13 23:29N 44°25' E 008°48'0 0.0
2017-Dec-13 22:59N 44°25' E 008°48'0 0.0
2017-Dec-13 22:29N 44°25' E 008°48'0 0.0
2017-Dec-13 21:59N 44°25' E 008°48'0 0.0
2017-Dec-13 21:29N 44°25' E 008°48'0 0.0
2017-Dec-13 20:59N 44°25' E 008°48'0 0.0
2017-Dec-13 20:29N 44°25' E 008°48'0 0.0
2017-Dec-13 19:59N 44°25' E 008°48'0 0.0
2017-Dec-13 19:29N 44°25' E 008°48'0 0.0
2017-Dec-13 18:59N 44°25' E 008°48'0 0.0
2017-Dec-13 18:23N 44°25' E 008°48'0 0.0
2017-Dec-13 17:59N 44°25' E 008°48'0 0.0
2017-Dec-13 17:29N 44°25' E 008°48'0 0.0
2017-Dec-13 16:59N 44°25' E 008°48'0 0.0
2017-Dec-13 16:29N 44°25' E 008°48'0 0.0
2017-Dec-13 15:56N 44°25' E 008°48'0 0.0
2017-Dec-13 15:29N 44°25' E 008°48'0 0.0
2017-Dec-13 14:56N 44°25' E 008°48'0 0.0
2017-Dec-13 14:29N 44°25' E 008°48'0 0.0
2017-Dec-13 13:56N 44°25' E 008°48'0 0.0
2017-Dec-13 13:29N 44°25' E 008°48'0 0.0
2017-Dec-13 12:59N 44°25' E 008°48'0 0.0
2017-Dec-13 12:29N 44°25' E 008°48'0 0.0
2017-Dec-13 11:59N 44°25' E 008°48'0 0.0
2017-Dec-13 11:29N 44°25' E 008°48'0 0.0
2017-Dec-13 10:59N 44°25' E 008°48'0 0.0
2017-Dec-13 10:30N 44°25' E 008°48'1 1.0
2017-Dec-13 10:00N 44°25' E 008°47'3 6.0
2017-Dec-13 09:30N 44°23' E 008°44'4 8.4
2017-Dec-13 09:00N 44°19' E 008°42'612.4
2017-Dec-13 08:31N 44°13' E 008°41'0 0.5
2017-Dec-13 08:01N 44°13' E 008°42'0 0.5
2017-Dec-13 07:30N 44°13' E 008°42'0 0.6
2017-Dec-13 07:01N 44°13' E 008°42'0 0.7
2017-Dec-13 06:30N 44°14' E 008°41'0 0.5
2017-Dec-13 06:00N 44°14' E 008°42'0 0.5
2017-Dec-13 05:31N 44°14' E 008°42'0 0.6
2017-Dec-13 05:00N 44°14' E 008°42'0 0.4
2017-Dec-13 04:31N 44°14' E 008°42'0 0.3
2017-Dec-13 04:01N 44°15' E 008°42'0 0.8
2017-Dec-13 03:31N 44°15' E 008°43'1 1.1
2017-Dec-13 03:01N 44°15' E 008°43'0 1.0
2017-Dec-13 02:30N 44°16' E 008°44'0 0.7
2017-Dec-13 02:00N 44°16' E 008°44'0 0.4
2017-Dec-13 01:30N 44°16' E 008°44'0 0.4
2017-Dec-13 01:01N 44°16' E 008°44'0 0.5
2017-Dec-13 00:31N 44°16' E 008°45'0 0.4
2017-Dec-13 00:01N 44°16' E 008°45'0 0.2
2017-Dec-12 23:31N 44°16' E 008°45'0 0.1
2017-Dec-12 23:00N 44°16' E 008°45'0 0.1
2017-Dec-12 22:31N 44°16' E 008°45'0 0.3
2017-Dec-12 22:01N 44°16' E 008°45'0 0.5
2017-Dec-12 21:31N 44°16' E 008°45'0 0.5
2017-Dec-12 21:00N 44°16' E 008°45'0 0.3
2017-Dec-12 20:30N 44°16' E 008°45'510.1
2017-Dec-12 20:00N 44°13' E 008°52'1019.5
2017-Dec-12 19:30N 44°07' E 009°02'1019.3
2017-Dec-12 19:00N 43°60' E 009°11'1019.3
2017-Dec-12 18:30N 43°52' E 009°19'1020.0
2017-Dec-12 18:00N 43°45' E 009°28'1019.8
2017-Dec-12 17:30N 43°39' E 009°39'1019.5
2017-Dec-12 17:00N 43°33' E 009°50'918.2
2017-Dec-12 16:30N 43°31' E 010°02'816.3
2017-Dec-12 16:00N 43°31' E 010°13'4 7.5
2017-Dec-12 15:31N 43°33' E 010°18'1 1.9
2017-Dec-12 14:58N 43°34' E 010°18'0 0.0
2017-Dec-12 14:28N 43°34' E 010°18'0 0.0
2017-Dec-12 13:58N 43°34' E 010°18'0 0.0
2017-Dec-12 13:28N 43°34' E 010°18'0 0.0
2017-Dec-12 12:55N 43°34' E 010°18'0 0.0
2017-Dec-12 12:28N 43°34' E 010°18'0 0.0
2017-Dec-12 11:58N 43°34' E 010°18'0 0.0
2017-Dec-12 11:28N 43°34' E 010°18'0 0.0
2017-Dec-12 10:58N 43°34' E 010°18'0 0.0
2017-Dec-12 10:28N 43°34' E 010°18'0 0.0
2017-Dec-12 09:58N 43°34' E 010°18'0 0.0
2017-Dec-12 09:28N 43°34' E 010°18'0 0.0
2017-Dec-12 08:58N 43°34' E 010°18'0 0.0
2017-Dec-12 08:28N 43°34' E 010°18'0 0.0
2017-Dec-12 07:55N 43°34' E 010°18'0 0.0
2017-Dec-12 07:28N 43°34' E 010°18'0 0.0
2017-Dec-12 06:58N 43°34' E 010°18'0 0.0
2017-Dec-12 06:25N 43°34' E 010°18'0 0.0
2017-Dec-12 05:58N 43°34' E 010°18'0 0.0
2017-Dec-12 05:28N 43°34' E 010°18'0 0.0
2017-Dec-12 04:58N 43°34' E 010°18'0 0.0
2017-Dec-12 04:25N 43°34' E 010°18'0 0.0
2017-Dec-12 03:58N 43°34' E 010°18'0 0.0
2017-Dec-12 03:28N 43°34' E 010°18'0 0.0
2017-Dec-12 02:58N 43°34' E 010°18'0 0.0
2017-Dec-12 02:28N 43°34' E 010°18'0 0.0
2017-Dec-12 01:58N 43°34' E 010°18'0 0.0
2017-Dec-12 01:28N 43°34' E 010°18'0 0.0
2017-Dec-12 00:58N 43°34' E 010°18'0 0.0
2017-Dec-12 00:28N 43°34' E 010°18'0 0.0
2017-Dec-11 23:58N 43°34' E 010°18'0 0.0
2017-Dec-11 23:25N 43°34' E 010°18'0 0.0
2017-Dec-11 22:58N 43°34' E 010°18'0 0.0
2017-Dec-11 22:28N 43°34' E 010°18'0 0.0
2017-Dec-11 21:58N 43°34' E 010°18'0 0.0
2017-Dec-11 21:28N 43°34' E 010°18'0 0.0
2017-Dec-11 20:55N 43°34' E 010°18'0 0.0
2017-Dec-11 20:28N 43°34' E 010°18'0 0.0
2017-Dec-11 19:58N 43°34' E 010°18'0 0.0
2017-Dec-11 19:28N 43°34' E 010°18'0 0.0
2017-Dec-11 18:58N 43°34' E 010°18'0 0.0
2017-Dec-11 18:28N 43°34' E 010°18'0 0.0
2017-Dec-11 17:58N 43°34' E 010°18'0 0.0
2017-Dec-11 17:25N 43°34' E 010°18'0 0.0
2017-Dec-11 16:55N 43°34' E 010°18'0 0.0
2017-Dec-11 16:28N 43°34' E 010°18'0 0.0
2017-Dec-11 15:58N 43°34' E 010°18'0 0.0
2017-Dec-11 15:25N 43°34' E 010°18'0 0.0
2017-Dec-11 14:58N 43°34' E 010°18'0 0.0
2017-Dec-11 14:28N 43°34' E 010°18'0 0.0
2017-Dec-11 13:58N 43°34' E 010°18'0 0.0
2017-Dec-11 13:28N 43°34' E 010°18'0 0.0
2017-Dec-11 12:58N 43°34' E 010°18'0 0.0
2017-Dec-11 12:28N 43°34' E 010°18'0 0.0
2017-Dec-11 11:58N 43°34' E 010°18'0 0.0
2017-Dec-11 11:28N 43°34' E 010°18'0 0.0
2017-Dec-11 10:58N 43°34' E 010°18'0 0.0
2017-Dec-11 10:28N 43°34' E 010°18'0 0.0
2017-Dec-11 09:58N 43°34' E 010°18'0 0.0
2017-Dec-11 09:28N 43°34' E 010°18'0 0.0
2017-Dec-11 08:58N 43°34' E 010°18'0 0.0
2017-Dec-11 08:28N 43°34' E 010°18'0 0.0
2017-Dec-11 07:46N 43°34' E 010°18'0 0.0
2017-Dec-11 07:28N 43°34' E 010°18'0 0.0
2017-Dec-11 06:58N 43°34' E 010°18'0 0.0
2017-Dec-11 06:28N 43°34' E 010°18'0 0.0
2017-Dec-11 05:58N 43°34' E 010°18'0 0.0
2017-Dec-11 05:22N 43°34' E 010°18'0 0.0
2017-Dec-11 04:58N 43°34' E 010°18'0 0.0
2017-Dec-11 04:28N 43°34' E 010°18'0 0.0
2017-Dec-11 03:58N 43°34' E 010°18'0 0.0
2017-Dec-11 03:28N 43°34' E 010°18'0 0.0
2017-Dec-11 02:55N 43°34' E 010°18'0 0.0
2017-Dec-11 02:28N 43°34' E 010°18'0 0.0
2017-Dec-11 01:58N 43°34' E 010°18'0 0.0
2017-Dec-11 01:25N 43°34' E 010°18'0 0.0
2017-Dec-11 00:55N 43°34' E 010°18'0 0.0
2017-Dec-11 00:28N 43°34' E 010°18'0 0.0
2017-Dec-10 23:58N 43°34' E 010°18'0 0.0
2017-Dec-10 23:28N 43°34' E 010°18'0 0.0
2017-Dec-10 22:55N 43°34' E 010°18'0 0.0
2017-Dec-10 22:28N 43°34' E 010°18'0 0.0
2017-Dec-10 21:58N 43°34' E 010°18'0 0.0
2017-Dec-10 21:28N 43°34' E 010°18'0 0.0
2017-Dec-10 20:58N 43°34' E 010°18'0 0.0
2017-Dec-10 20:28N 43°34' E 010°18'0 0.0
2017-Dec-10 19:58N 43°34' E 010°18'0 0.0
2017-Dec-10 19:28N 43°34' E 010°18'0 0.0
2017-Dec-10 18:58N 43°34' E 010°18'0 0.0
2017-Dec-10 18:19N 43°34' E 010°18'0 0.0
2017-Dec-10 17:58N 43°34' E 010°18'0 0.0
2017-Dec-10 17:28N 43°34' E 010°18'0 0.0
2017-Dec-10 16:58N 43°34' E 010°18'0 0.0
2017-Dec-10 16:25N 43°34' E 010°18'0 0.0
2017-Dec-10 15:55N 43°34' E 010°18'0 0.0
2017-Dec-10 15:25N 43°34' E 010°18'0 0.0
2017-Dec-10 14:55N 43°34' E 010°18'0 0.0
2017-Dec-10 14:28N 43°34' E 010°18'0 0.0
2017-Dec-10 13:58N 43°34' E 010°18'0 0.0
2017-Dec-10 13:28N 43°34' E 010°18'0 0.0
2017-Dec-10 12:58N 43°34' E 010°18'0 0.0
2017-Dec-10 12:28N 43°34' E 010°18'0 0.0
2017-Dec-10 11:58N 43°34' E 010°18'0 0.0
2017-Dec-10 11:28N 43°34' E 010°18'0 0.0
2017-Dec-10 10:58N 43°34' E 010°18'0 0.3
2017-Dec-10 10:30N 43°34' E 010°18'2 4.4
2017-Dec-10 10:00N 43°32' E 010°17'3 6.1
2017-Dec-10 09:30N 43°30' E 010°14'4 8.0
2017-Dec-10 09:00N 43°27' E 010°10'1 2.5
2017-Dec-10 08:30N 43°26' E 010°09'1 1.6
2017-Dec-10 08:00N 43°26' E 010°08'1 1.7
2017-Dec-10 07:30N 43°25' E 010°07'1 1.4
2017-Dec-10 07:00N 43°25' E 010°07'1 1.0
2017-Dec-10 06:30N 43°25' E 010°06'2 4.0
2017-Dec-10 06:00N 43°27' E 010°06'4 7.2
2017-Dec-10 05:30N 43°30' E 010°06'0 0.1
2017-Dec-10 05:00N 43°30' E 010°06'1 1.4
2017-Dec-10 04:30N 43°30' E 010°05'1 1.3
2017-Dec-10 04:00N 43°30' E 010°04'1 1.1
2017-Dec-10 03:30N 43°29' E 010°04'0 0.8
2017-Dec-10 03:00N 43°29' E 010°03'0 0.5
2017-Dec-10 02:30N 43°29' E 010°03'0 0.5
2017-Dec-10 02:00N 43°29' E 010°03'0 0.5
2017-Dec-10 01:30N 43°29' E 010°03'0 0.4
2017-Dec-10 01:00N 43°28' E 010°03'0 0.4
2017-Dec-10 00:30N 43°28' E 010°03'0 0.3
2017-Dec-10 00:00N 43°28' E 010°03'0 0.4
2017-Dec-09 23:30N 43°28' E 010°03'0 0.7
2017-Dec-09 23:00N 43°28' E 010°02'0 0.8
2017-Dec-09 22:30N 43°29' E 010°02'0 0.8
2017-Dec-09 21:59N 43°29' E 010°01'0 0.9
2017-Dec-09 21:30N 43°29' E 010°01'0 0.7
2017-Dec-09 20:59N 43°29' E 010°01'0 0.4
2017-Dec-09 20:30N 43°30' E 010°01'1 1.9
2017-Dec-09 20:00N 43°29' E 010°02'4 7.5
2017-Dec-09 19:30N 43°27' E 010°06'4 7.4
2017-Dec-09 18:57N 43°25' E 010°11'3 7.5
2017-Dec-09 18:30N 43°23' E 010°15'1 2.1
2017-Dec-09 18:00N 43°23' E 010°16'1 1.3
2017-Dec-09 17:30N 43°23' E 010°15'1 1.5
2017-Dec-09 16:56N 43°24' E 010°14'1 1.6
2017-Dec-09 16:30N 43°24' E 010°14'1 1.7
2017-Dec-09 16:00N 43°25' E 010°13'1 1.6
2017-Dec-09 15:26N 43°25' E 010°12'1 1.8
2017-Dec-09 15:00N 43°26' E 010°11'1 1.9
2017-Dec-09 14:30N 43°26' E 010°10'1 2.0
2017-Dec-09 14:00N 43°27' E 010°09'1 2.1
2017-Dec-09 13:30N 43°28' E 010°08'1 2.1
2017-Dec-09 13:00N 43°28' E 010°07'1 2.3
2017-Dec-09 12:30N 43°29' E 010°06'1 1.6
2017-Dec-09 12:00N 43°30' E 010°05'510.7
2017-Dec-09 11:31N 43°29' E 010°13'714.3
2017-Dec-09 11:00N 43°25' E 010°04'1 2.7
2017-Dec-09 10:31N 43°26' E 010°03'4 7.8
2017-Dec-09 10:01N 43°24' E 010°08'713.2
2017-Dec-09 09:30N 43°18' E 010°07'815.5
2017-Dec-09 08:59N 43°10' E 010°04'815.7
2017-Dec-09 08:30N 43°03' E 010°01'815.6
2017-Dec-09 07:58N 42°55' E 009°58'22615.8
2017-Dec-08 17:40N 40°31' E 013°51'318.4
2017-Dec-08 17:30N 40°31' E 013°55'1917.5
2017-Dec-08 16:26N 40°31' E 014°19'817.4
2017-Dec-08 16:00N 40°33' E 014°29'40 2.1
2017-Dec-07 20:45N 39°57' E 014°52'312.2
2017-Dec-07 20:30N 39°55' E 014°53'612.0
2017-Dec-07 20:00N 39°49' E 014°56'1411.9
2017-Dec-07 18:49N 39°36' E 015°03'411.8
2017-Dec-07 18:27N 39°32' E 015°05'512.1
2017-Dec-07 18:00N 39°27' E 015°08'2212.0
2017-Dec-07 16:07N 39°06' E 015°18'1511.7
2017-Dec-07 14:48N 38°52' E 015°25'511.8
2017-Dec-07 14:23N 38°47' E 015°28'511.9
2017-Dec-07 13:59N 38°43' E 015°30'611.8
2017-Dec-07 13:29N 38°37' E 015°33'1311.7
2017-Dec-07 12:24N 38°26' E 015°39'411.1
2017-Dec-07 12:00N 38°21' E 015°41'510.0
2017-Dec-07 11:30N 38°17' E 015°43'713.4
2017-Dec-07 11:00N 38°12' E 015°37'714.8
2017-Dec-07 10:30N 38°05' E 015°36'918.1
2017-Dec-07 10:00N 37°56' E 015°35'1217.8
2017-Dec-07 09:21N 37°44' E 015°34'515.4
2017-Dec-07 09:00N 37°39' E 015°34'1111.6
2017-Dec-07 08:04N 37°28' E 015°32'111.6
2017-Dec-07 07:59N 37°27' E 015°32'711.6
2017-Dec-07 07:21N 37°20' E 015°32'511.6
2017-Dec-07 06:53N 37°14' E 015°31'  
Track history (hours):
 
Tides and Currents Weather Stations Pressure Air Temp Water Temp Dewpoint Dewpoint Depression Visibility Wind Speed Wind Dir Waves Ship Positions

CMA CGM Florida

Last reported at 2017-Dec-17 04:41 UTC. Time now 2017-Dec-17 19:44 UTC.
Position N 40°49' E 001°40'.

Length 294 m; draft 10.5 m.

Type: Ship (hazmat cat A). MMSI: 235060593.

Date/timePositionNaut miles runAvg speedWind from/ knotsBaromVisibWave heightAir tempDewpointWater temp
2017-Dec-17 04:41N 40°49' E 001°40'314.1
2017-Dec-17 04:30N 40°51' E 001°42'714.2
2017-Dec-17 04:00N 40°56' E 001°48'714.3
2017-Dec-17 03:30N 41°02' E 001°54'713.8
2017-Dec-17 03:00N 41°07' E 001°60'713.3
2017-Dec-17 02:30N 41°12' E 002°05'612.6
2017-Dec-17 02:00N 41°17' E 002°11'1 0.1
2017-Dec-16 14:17N 41°18' E 002°11'2 7.9
2017-Dec-16 14:00N 41°17' E 002°12'155 5.4
2017-Dec-15 09:24N 42°59' E 004°48'612.7
2017-Dec-15 08:57N 43°04' E 004°53'612.7
2017-Dec-15 08:30N 43°08' E 004°58'612.0
2017-Dec-15 08:00N 43°14' E 005°00'713.4
2017-Dec-15 07:30N 43°21' E 004°58'4 9.0
2017-Dec-15 07:00N 43°24' E 004°54'2 4.1
2017-Dec-15 06:30N 43°24' E 004°51'0 0.7
2017-Dec-15 05:57N 43°25' E 004°51'0 0.0
2017-Dec-15 05:27N 43°25' E 004°51'0 0.0
2017-Dec-15 05:00N 43°25' E 004°51'0 0.0
2017-Dec-15 04:30N 43°25' E 004°51'0 0.0
2017-Dec-15 04:00N 43°25' E 004°51'0 0.0
2017-Dec-15 02:30N 43°25' E 004°51'0 0.0
2017-Dec-15 01:00N 43°25' E 004°51'0 0.0
2017-Dec-15 00:27N 43°25' E 004°51'0 0.0
2017-Dec-14 18:29N 43°25' E 004°51'0 0.0
2017-Dec-14 18:00N 43°25' E 004°51'0 0.5
2017-Dec-14 17:30N 43°25' E 004°51'3 5.9
2017-Dec-14 17:00N 43°24' E 004°55'611.7
2017-Dec-14 16:30N 43°19' E 004°60'816.6
2017-Dec-14 16:00N 43°11' E 005°03'8518.3
2017-Dec-14 11:21N 43°04' E 006°60'719.8
2017-Dec-14 11:00N 43°07' E 007°08'1019.8
2017-Dec-14 10:30N 43°13' E 007°19'1019.8
2017-Dec-14 10:00N 43°19' E 007°30'1019.4
2017-Dec-14 09:30N 43°26' E 007°40'3820.0
2017-Dec-14 07:36N 43°50' E 008°19'221.0
2017-Dec-14 07:30N 43°52' E 008°21'1020.9
2017-Dec-14 07:00N 44°00' E 008°30'1020.7
2017-Dec-14 06:30N 44°09' E 008°38'1019.8
2017-Dec-14 06:00N 44°18' E 008°42'714.6
2017-Dec-14 05:30N 44°25' E 008°46'2 2.9
2017-Dec-14 04:59N 44°25' E 008°48'0 0.0
2017-Dec-14 04:29N 44°25' E 008°48'0 0.0
2017-Dec-14 03:59N 44°25' E 008°48'0 0.0
2017-Dec-14 03:29N 44°25' E 008°48'0 0.0
2017-Dec-14 02:59N 44°25' E 008°48'0 0.0
2017-Dec-14 02:29N 44°25' E 008°48'0 0.0
2017-Dec-14 01:59N 44°25' E 008°48'0 0.0
2017-Dec-14 01:29N 44°25' E 008°48'0 0.0
2017-Dec-14 00:59N 44°25' E 008°48'0 0.0
2017-Dec-14 00:29N 44°25' E 008°48'0 0.0
2017-Dec-13 23:59N 44°25' E 008°48'0 0.0
2017-Dec-13 23:29N 44°25' E 008°48'0 0.0
2017-Dec-13 22:59N 44°25' E 008°48'0 0.0
2017-Dec-13 22:29N 44°25' E 008°48'0 0.0
2017-Dec-13 21:59N 44°25' E 008°48'0 0.0
2017-Dec-13 21:29N 44°25' E 008°48'0 0.0
2017-Dec-13 20:59N 44°25' E 008°48'0 0.0
2017-Dec-13 20:29N 44°25' E 008°48'0 0.0
2017-Dec-13 19:59N 44°25' E 008°48'0 0.0
2017-Dec-13 19:29N 44°25' E 008°48'0 0.0
2017-Dec-13 18:59N 44°25' E 008°48'0 0.0
2017-Dec-13 18:23N 44°25' E 008°48'0 0.0
2017-Dec-13 17:59N 44°25' E 008°48'0 0.0
2017-Dec-13 17:29N 44°25' E 008°48'0 0.0
2017-Dec-13 16:59N 44°25' E 008°48'0 0.0
2017-Dec-13 16:29N 44°25' E 008°48'0 0.0
2017-Dec-13 15:56N 44°25' E 008°48'0 0.0
2017-Dec-13 15:29N 44°25' E 008°48'0 0.0
2017-Dec-13 14:56N 44°25' E 008°48'0 0.0
2017-Dec-13 14:29N 44°25' E 008°48'0 0.0
2017-Dec-13 13:56N 44°25' E 008°48'0 0.0
2017-Dec-13 13:29N 44°25' E 008°48'0 0.0
2017-Dec-13 12:59N 44°25' E 008°48'0 0.0
2017-Dec-13 12:29N 44°25' E 008°48'0 0.0
2017-Dec-13 11:59N 44°25' E 008°48'0 0.0
2017-Dec-13 11:29N 44°25' E 008°48'0 0.0
2017-Dec-13 10:59N 44°25' E 008°48'0 0.0
2017-Dec-13 10:30N 44°25' E 008°48'1 1.0
2017-Dec-13 10:00N 44°25' E 008°47'3 6.0
2017-Dec-13 09:30N 44°23' E 008°44'4 8.4
2017-Dec-13 09:00N 44°19' E 008°42'612.4
2017-Dec-13 08:31N 44°13' E 008°41'0 0.5
2017-Dec-13 08:01N 44°13' E 008°42'0 0.5
2017-Dec-13 07:30N 44°13' E 008°42'0 0.6
2017-Dec-13 07:01N 44°13' E 008°42'0 0.7
2017-Dec-13 06:30N 44°14' E 008°41'0 0.5
2017-Dec-13 06:00N 44°14' E 008°42'0 0.5
2017-Dec-13 05:31N 44°14' E 008°42'0 0.6
2017-Dec-13 05:00N 44°14' E 008°42'0 0.4
2017-Dec-13 04:31N 44°14' E 008°42'0 0.3
2017-Dec-13 04:01N 44°15' E 008°42'0 0.8
2017-Dec-13 03:31N 44°15' E 008°43'1 1.1
2017-Dec-13 03:01N 44°15' E 008°43'0 1.0
2017-Dec-13 02:30N 44°16' E 008°44'0 0.7
2017-Dec-13 02:00N 44°16' E 008°44'0 0.4
2017-Dec-13 01:30N 44°16' E 008°44'0 0.4
2017-Dec-13 01:01N 44°16' E 008°44'0 0.5
2017-Dec-13 00:31N 44°16' E 008°45'0 0.4
2017-Dec-13 00:01N 44°16' E 008°45'0 0.2
2017-Dec-12 23:31N 44°16' E 008°45'0 0.1
2017-Dec-12 23:00N 44°16' E 008°45'0 0.1
2017-Dec-12 22:31N 44°16' E 008°45'0 0.3
2017-Dec-12 22:01N 44°16' E 008°45'0 0.5
2017-Dec-12 21:31N 44°16' E 008°45'0 0.5
2017-Dec-12 21:00N 44°16' E 008°45'0 0.3
2017-Dec-12 20:30N 44°16' E 008°45'510.1
2017-Dec-12 20:00N 44°13' E 008°52'1019.5
2017-Dec-12 19:30N 44°07' E 009°02'1019.3
2017-Dec-12 19:00N 43°60' E 009°11'1019.3
2017-Dec-12 18:30N 43°52' E 009°19'1020.0
2017-Dec-12 18:00N 43°45' E 009°28'1019.8
2017-Dec-12 17:30N 43°39' E 009°39'1019.5
2017-Dec-12 17:00N 43°33' E 009°50'918.2
2017-Dec-12 16:30N 43°31' E 010°02'816.3
2017-Dec-12 16:00N 43°31' E 010°13'4 7.5
2017-Dec-12 15:31N 43°33' E 010°18'1 1.9
2017-Dec-12 14:58N 43°34' E 010°18'0 0.0
2017-Dec-12 14:28N 43°34' E 010°18'0 0.0
2017-Dec-12 13:58N 43°34' E 010°18'0 0.0
2017-Dec-12 13:28N 43°34' E 010°18'0 0.0
2017-Dec-12 12:55N 43°34' E 010°18'0 0.0
2017-Dec-12 12:28N 43°34' E 010°18'0 0.0
2017-Dec-12 11:58N 43°34' E 010°18'0 0.0
2017-Dec-12 11:28N 43°34' E 010°18'0 0.0
2017-Dec-12 10:58N 43°34' E 010°18'0 0.0
2017-Dec-12 10:28N 43°34' E 010°18'0 0.0
2017-Dec-12 09:58N 43°34' E 010°18'0 0.0
2017-Dec-12 09:28N 43°34' E 010°18'0 0.0
2017-Dec-12 08:58N 43°34' E 010°18'0 0.0
2017-Dec-12 08:28N 43°34' E 010°18'0 0.0
2017-Dec-12 07:55N 43°34' E 010°18'0 0.0
2017-Dec-12 07:28N 43°34' E 010°18'0 0.0
2017-Dec-12 06:58N 43°34' E 010°18'0 0.0
2017-Dec-12 06:25N 43°34' E 010°18'0 0.0
2017-Dec-12 05:58N 43°34' E 010°18'0 0.0
2017-Dec-12 05:28N 43°34' E 010°18'0 0.0
2017-Dec-12 04:58N 43°34' E 010°18'0 0.0
2017-Dec-12 04:25N 43°34' E 010°18'0 0.0
2017-Dec-12 03:58N 43°34' E 010°18'0 0.0
2017-Dec-12 03:28N 43°34' E 010°18'0 0.0
2017-Dec-12 02:58N 43°34' E 010°18'0 0.0
2017-Dec-12 02:28N 43°34' E 010°18'0 0.0
2017-Dec-12 01:58N 43°34' E 010°18'0 0.0
2017-Dec-12 01:28N 43°34' E 010°18'0 0.0
2017-Dec-12 00:58N 43°34' E 010°18'0 0.0
2017-Dec-12 00:28N 43°34' E 010°18'0 0.0
2017-Dec-11 23:58N 43°34' E 010°18'0 0.0
2017-Dec-11 23:25N 43°34' E 010°18'0 0.0
2017-Dec-11 22:58N 43°34' E 010°18'0 0.0
2017-Dec-11 22:28N 43°34' E 010°18'0 0.0
2017-Dec-11 21:58N 43°34' E 010°18'0 0.0
2017-Dec-11 21:28N 43°34' E 010°18'0 0.0
2017-Dec-11 20:55N 43°34' E 010°18'0 0.0
2017-Dec-11 20:28N 43°34' E 010°18'0 0.0
2017-Dec-11 19:58N 43°34' E 010°18'0 0.0
2017-Dec-11 19:28N 43°34' E 010°18'0 0.0
2017-Dec-11 18:58N 43°34' E 010°18'0 0.0
2017-Dec-11 18:28N 43°34' E 010°18'0 0.0
2017-Dec-11 17:58N 43°34' E 010°18'0 0.0
2017-Dec-11 17:25N 43°34' E 010°18'0 0.0
2017-Dec-11 16:55N 43°34' E 010°18'0 0.0
2017-Dec-11 16:28N 43°34' E 010°18'0 0.0
2017-Dec-11 15:58N 43°34' E 010°18'0 0.0
2017-Dec-11 15:25N 43°34' E 010°18'0 0.0
2017-Dec-11 14:58N 43°34' E 010°18'0 0.0
2017-Dec-11 14:28N 43°34' E 010°18'0 0.0
2017-Dec-11 13:58N 43°34' E 010°18'0 0.0
2017-Dec-11 13:28N 43°34' E 010°18'0 0.0
2017-Dec-11 12:58N 43°34' E 010°18'0 0.0
2017-Dec-11 12:28N 43°34' E 010°18'0 0.0
2017-Dec-11 11:58N 43°34' E 010°18'0 0.0
2017-Dec-11 11:28N 43°34' E 010°18'0 0.0
2017-Dec-11 10:58N 43°34' E 010°18'0 0.0
2017-Dec-11 10:28N 43°34' E 010°18'0 0.0
2017-Dec-11 09:58N 43°34' E 010°18'0 0.0
2017-Dec-11 09:28N 43°34' E 010°18'0 0.0
2017-Dec-11 08:58N 43°34' E 010°18'0 0.0
2017-Dec-11 08:28N 43°34' E 010°18'0 0.0
2017-Dec-11 07:46N 43°34' E 010°18'0 0.0
2017-Dec-11 07:28N 43°34' E 010°18'0 0.0
2017-Dec-11 06:58N 43°34' E 010°18'0 0.0
2017-Dec-11 06:28N 43°34' E 010°18'0 0.0
2017-Dec-11 05:58N 43°34' E 010°18'0 0.0
2017-Dec-11 05:22N 43°34' E 010°18'0 0.0
2017-Dec-11 04:58N 43°34' E 010°18'0 0.0
2017-Dec-11 04:28N 43°34' E 010°18'0 0.0
2017-Dec-11 03:58N 43°34' E 010°18'0 0.0
2017-Dec-11 03:28N 43°34' E 010°18'0 0.0
2017-Dec-11 02:55N 43°34' E 010°18'0 0.0
2017-Dec-11 02:28N 43°34' E 010°18'0 0.0
2017-Dec-11 01:58N 43°34' E 010°18'0 0.0
2017-Dec-11 01:25N 43°34' E 010°18'0 0.0
2017-Dec-11 00:55N 43°34' E 010°18'0 0.0
2017-Dec-11 00:28N 43°34' E 010°18'0 0.0
2017-Dec-10 23:58N 43°34' E 010°18'0 0.0
2017-Dec-10 23:28N 43°34' E 010°18'0 0.0
2017-Dec-10 22:55N 43°34' E 010°18'0 0.0
2017-Dec-10 22:28N 43°34' E 010°18'0 0.0
2017-Dec-10 21:58N 43°34' E 010°18'0 0.0
2017-Dec-10 21:28N 43°34' E 010°18'0 0.0
2017-Dec-10 20:58N 43°34' E 010°18'0 0.0
2017-Dec-10 20:28N 43°34' E 010°18'0 0.0
2017-Dec-10 19:58N 43°34' E 010°18'0 0.0
2017-Dec-10 19:28N 43°34' E 010°18'0 0.0
2017-Dec-10 18:58N 43°34' E 010°18'0 0.0
2017-Dec-10 18:19N 43°34' E 010°18'0 0.0
2017-Dec-10 17:58N 43°34' E 010°18'0 0.0
2017-Dec-10 17:28N 43°34' E 010°18'0 0.0
2017-Dec-10 16:58N 43°34' E 010°18'0 0.0
2017-Dec-10 16:25N 43°34' E 010°18'0 0.0
2017-Dec-10 15:55N 43°34' E 010°18'0 0.0
2017-Dec-10 15:25N 43°34' E 010°18'0 0.0
2017-Dec-10 14:55N 43°34' E 010°18'0 0.0
2017-Dec-10 14:28N 43°34' E 010°18'0 0.0
2017-Dec-10 13:58N 43°34' E 010°18'0 0.0
2017-Dec-10 13:28N 43°34' E 010°18'0 0.0
2017-Dec-10 12:58N 43°34' E 010°18'0 0.0
2017-Dec-10 12:28N 43°34' E 010°18'0 0.0
2017-Dec-10 11:58N 43°34' E 010°18'0 0.0
2017-Dec-10 11:28N 43°34' E 010°18'0 0.0
2017-Dec-10 10:58N 43°34' E 010°18'0 0.3
2017-Dec-10 10:30N 43°34' E 010°18'2 4.4
2017-Dec-10 10:00N 43°32' E 010°17'3 6.1
2017-Dec-10 09:30N 43°30' E 010°14'4 8.0
2017-Dec-10 09:00N 43°27' E 010°10'1 2.5
2017-Dec-10 08:30N 43°26' E 010°09'1 1.6
2017-Dec-10 08:00N 43°26' E 010°08'1 1.7
2017-Dec-10 07:30N 43°25' E 010°07'1 1.4
2017-Dec-10 07:00N 43°25' E 010°07'1 1.0
2017-Dec-10 06:30N 43°25' E 010°06'2 4.0
2017-Dec-10 06:00N 43°27' E 010°06'4 7.2
2017-Dec-10 05:30N 43°30' E 010°06'0 0.1
2017-Dec-10 05:00N 43°30' E 010°06'1 1.4
2017-Dec-10 04:30N 43°30' E 010°05'1 1.3
2017-Dec-10 04:00N 43°30' E 010°04'1 1.1
2017-Dec-10 03:30N 43°29' E 010°04'0 0.8
2017-Dec-10 03:00N 43°29' E 010°03'0 0.5
2017-Dec-10 02:30N 43°29' E 010°03'0 0.5
2017-Dec-10 02:00N 43°29' E 010°03'0 0.5
2017-Dec-10 01:30N 43°29' E 010°03'0 0.4
2017-Dec-10 01:00N 43°28' E 010°03'0 0.4
2017-Dec-10 00:30N 43°28' E 010°03'0 0.3
2017-Dec-10 00:00N 43°28' E 010°03'0 0.4
2017-Dec-09 23:30N 43°28' E 010°03'0 0.7
2017-Dec-09 23:00N 43°28' E 010°02'0 0.8
2017-Dec-09 22:30N 43°29' E 010°02'0 0.8
2017-Dec-09 21:59N 43°29' E 010°01'0 0.9
2017-Dec-09 21:30N 43°29' E 010°01'0 0.7
2017-Dec-09 20:59N 43°29' E 010°01'0 0.4
2017-Dec-09 20:30N 43°30' E 010°01'1 1.9
2017-Dec-09 20:00N 43°29' E 010°02'4 7.5
2017-Dec-09 19:30N 43°27' E 010°06'4 7.4
2017-Dec-09 18:57N 43°25' E 010°11'3 7.5
2017-Dec-09 18:30N 43°23' E 010°15'1 2.1
2017-Dec-09 18:00N 43°23' E 010°16'1 1.3
2017-Dec-09 17:30N 43°23' E 010°15'1 1.5
2017-Dec-09 16:56N 43°24' E 010°14'1 1.6
2017-Dec-09 16:30N 43°24' E 010°14'1 1.7
2017-Dec-09 16:00N 43°25' E 010°13'1 1.6
2017-Dec-09 15:26N 43°25' E 010°12'1 1.8
2017-Dec-09 15:00N 43°26' E 010°11'1 1.9
2017-Dec-09 14:30N 43°26' E 010°10'1 2.0
2017-Dec-09 14:00N 43°27' E 010°09'1 2.1
2017-Dec-09 13:30N 43°28' E 010°08'1 2.1
2017-Dec-09 13:00N 43°28' E 010°07'1 2.3
2017-Dec-09 12:30N 43°29' E 010°06'1 1.6
2017-Dec-09 12:00N 43°30' E 010°05'510.7
2017-Dec-09 11:31N 43°29' E 010°13'714.3
2017-Dec-09 11:00N 43°25' E 010°04'1 2.7
2017-Dec-09 10:31N 43°26' E 010°03'4 7.8
2017-Dec-09 10:01N 43°24' E 010°08'713.2
2017-Dec-09 09:30N 43°18' E 010°07'815.5
2017-Dec-09 08:59N 43°10' E 010°04'815.7
2017-Dec-09 08:30N 43°03' E 010°01'815.6
2017-Dec-09 07:58N 42°55' E 009°58'22615.8
2017-Dec-08 17:40N 40°31' E 013°51'318.4
2017-Dec-08 17:30N 40°31' E 013°55'1917.5
2017-Dec-08 16:26N 40°31' E 014°19'817.4
2017-Dec-08 16:00N 40°33' E 014°29'40 2.1
2017-Dec-07 20:45N 39°57' E 014°52'312.2
2017-Dec-07 20:30N 39°55' E 014°53'612.0
2017-Dec-07 20:00N 39°49' E 014°56'1411.9
2017-Dec-07 18:49N 39°36' E 015°03'411.8
2017-Dec-07 18:27N 39°32' E 015°05'512.1
2017-Dec-07 18:00N 39°27' E 015°08'2212.0
2017-Dec-07 16:07N 39°06' E 015°18'1511.7
2017-Dec-07 14:48N 38°52' E 015°25'511.8
2017-Dec-07 14:23N 38°47' E 015°28'511.9
2017-Dec-07 13:59N 38°43' E 015°30'611.8
2017-Dec-07 13:29N 38°37' E 015°33'1311.7
2017-Dec-07 12:24N 38°26' E 015°39'411.1
2017-Dec-07 12:00N 38°21' E 015°41'510.0
2017-Dec-07 11:30N 38°17' E 015°43'713.4
2017-Dec-07 11:00N 38°12' E 015°37'714.8
2017-Dec-07 10:30N 38°05' E 015°36'918.1
2017-Dec-07 10:00N 37°56' E 015°35'1217.8
2017-Dec-07 09:21N 37°44' E 015°34'515.4
2017-Dec-07 09:00N 37°39' E 015°34'1111.6
2017-Dec-07 08:04N 37°28' E 015°32'111.6
2017-Dec-07 07:59N 37°27' E 015°32'711.6
2017-Dec-07 07:21N 37°20' E 015°32'511.6
2017-Dec-07 06:53N 37°14' E 015°31'  

Dump ship's entire track history